Racecast

Princeton XC Invite 2008

West Windsor Field · 8000m · Boys · Compiled · NJ

189 runners from 1 division

These divisions were run separately. This is how their times compare, not how they finished — the places and scores below were never contested.

View full meet →

Team scores

Place Team Points 12345 67
1 Saint Joseph's (PA) 54 1 2 14 17 20 31 51
2 Duquesne (PA) 54 4 10 11 13 16 38 47
3 Princeton (NJ) 73 3 7 9 21 33 44 49
4 Lehigh (PA) 92 5 8 19 23 37 39 42
5 Columbia (NY) 112 6 12 24 34 36 41 43
6 Bucknell (PA) 143 15 26 30 32 40 48 50
7 UMBC (PA) 212 18 28 35 56 75
8 Loyola (Md.) (NY) 248 22 25 55 72 74 76 79
9 Temple (PA) 253 29 45 58 59 62 64 66
10 Monmouth (NJ) 286 46 52 60 63 65 68 70
11 Loyola (Md.) (PA) 286 27 54 61 67 77 78 80
12 Penn (NJ) 323 53 57 69 71 73

Not scored, fewer than five finishers: Princeton (4), NJIT (4), Loyola (Md.) (4), Maryland (3), Monmouth (3), UMBC (3), Columbia (2), NJIT (2), Maryland (2), Penn (2), Penn (2), Monmouth (2), Princeton (1), Maryland (1), UMBC (1), Maryland (1), Princeton (1), Saint Joseph's (1), Saint Joseph's (1), Temple (1)

Rating scale ?

Results

Place Athlete Grade School Time Rating Points Actual race
1 Michael Maag Sr Princeton (NJ) 1 24:07.8 118.0 1
2 Greg Kelsey Jr Maryland (MD) 1 24:13.9 117.5 2
3 Alex Lundy So Maryland (MD) 1 24:15.7 117.3 3
4 Kyle Murray Sr Saint Joseph's (PA) 1 24:17.9 117.2 1 4
5 Brian Guterl So Saint Joseph's (PA) 2 24:23.4 116.7 2 5
6 Brian Leung Fr Princeton (NJ) 1 24:23.7 116.7 3 6
7 Bobby Hartnett Jr Columbia (NY) 1 24:28.9 116.3 7
8 Josh Eddy Sr Duquesne (PA) 1 24:29.5 116.2 4 8
9 Jonathan Wetzel Sr Lehigh (PA) 1 24:33.3 115.9 5 9
10 Ross Turner Sr Columbia (NY) 1 24:33.8 115.9 6 10
11 Cameron Marantz Sr Princeton (NJ) 2 24:35.6 115.7 7 11
12 Daniel McClimon So Lehigh (PA) 2 24:36.9 115.6 8 12
13 Ryan Withall Jr Columbia (NY) 2 24:38.5 115.5 13
14 Rob Speare So Princeton (NJ) 3 24:41.0 115.3 9 14
15 Shane Sarver Sr Duquesne (PA) 2 24:41.1 115.3 10 15
16 Scott Van Kooten So Duquesne (PA) 3 24:43.9 115.1 11 16
17 Patrick Jeffers Jr Columbia (NY) 2 24:44.3 115.1 12 17
18 Mike Stolar So Duquesne (PA) 4 24:45.0 115.0 13 18
19 Jonathan Sclafani Jr Saint Joseph's (PA) 3 24:46.1 114.9 14 19
20 Umar Saeed Jr NJIT (NY) 1 24:46.9 114.9 20
21 Andrew Huebner Jr Bucknell (PA) 1 24:48.3 114.8 15 21
22 Derek Dutille Sr Duquesne (PA) 5 24:50.5 114.6 16 22
23 James Jennings Jr Saint Joseph's (PA) 4 24:52.4 114.4 17 23
24 Kevin Gahr Jr Maryland (MD) 2 24:53.3 114.4 24
25 Anthony Kelhower Sr UMBC (MD) 1 24:54.0 114.3 18 25
26 Benjamin Lampi Sr Lehigh (PA) 3 24:55.3 114.2 19 26
27 Kevin McDonnell Fr Saint Joseph's (PA) 5 24:55.5 114.2 20 27
28 Paul Zwama So UMBC (MD) 1 24:55.7 114.2 28
29 Peter Forgach Jr Monmouth (NJ) 1 25:00.2 113.8 29
30 Sean Wilson Fr Princeton (NJ) 4 25:01.1 113.8 21 30
31 Christopher Heibell Sr Loyola (Md.) (PA) 1 25:02.3 113.7 22 31
32 Daniel DeWitt Sr Lehigh (PA) 4 25:04.1 113.6 23 32
33 Gary Brownell Fr Columbia (NY) 3 25:05.3 113.5 24 33
34 Gian-Paul Caccia Sr Loyola (Md.) (PA) 2 25:07.0 113.3 25 34
35 Baron Willeford Jr Bucknell (PA) 2 25:08.8 113.2 26 35
36 Daniel McDevitt Jr Loyola (Md.) (PA) 1 25:09.6 113.1 27 36
37 Bryan Sharkey Sr Princeton (NJ) 1 25:09.8 113.1 37
38 Andrew Madison Sr UMBC (MD) 2 25:09.8 113.1 28 38
39 Richie Booth Sr Maryland (MD) 1 25:10.4 113.1 39
40 Mike Mayer So Temple (TX) 1 25:10.8 113.0 29 40
41 Clinton Orloski Sr Bucknell (PA) 3 25:11.0 113.0 30 41
42 Trevor Van Ackeren Fr Princeton (NJ) 2 25:13.1 112.9 42
43 Zack Predmore So Princeton (NJ) 3 25:14.9 112.7 43
44 Mike Cator Jr Maryland (MD) 3 25:17.0 112.6 44
45 Will Rowland Sr Saint Joseph's (PA) 6 25:17.2 112.6 31 45
46 Connor McNamara Jr Bucknell (PA) 4 25:17.9 112.5 32 46
47 Jimmy Joy Jr Princeton (NJ) 5 25:18.6 112.5 33 47
48 Justin Heck Fr Columbia (NY) 4 25:22.1 112.2 34 48
49 Michael Christmas So UMBC (MD) 3 25:22.6 112.2 35 49
50 Kyle Cook Jr Columbia (NY) 5 25:23.0 112.1 36 50
51 Carl Leunig Sr Lehigh (PA) 5 25:24.3 112.0 37 51
52 Christian Baumbach Fr NJIT (NY) 1 25:24.6 112.0 52
53 Elliot Welder Jr Princeton (NJ) 4 25:24.9 112.0 53
54 Drew Abernathy Jr Maryland (MD) 1 25:25.3 112.0 54
55 Erik Anderson So Duquesne (PA) 6 25:25.8 111.9 38 55
56 William Kearns Fr Lehigh (PA) 6 25:25.9 111.9 39 56
57 Stephen Dorsey So Bucknell (PA) 5 25:26.2 111.9 40 57
58 Ryan Johns Sr Columbia (NY) 6 25:26.4 111.9 41 58
59 Leo Smith Sr Lehigh (PA) 7 25:27.3 111.8 42 59
60 Matt Ciambriello So Columbia (NY) 7 25:29.0 111.7 43 60
61 Matthew Tedrick Jr Lehigh (PA) 8 25:29.7 111.7 61
62 Kenneth Burgess Jr Lehigh (PA) 9 25:31.4 111.5 62
63 Evans Kosgei So Lehigh (PA) 10 25:33.9 111.3 63
64 Thomas Dialynas Fr Princeton (NJ) 6 25:35.1 111.2 44 64
65 Travis Mahoney Fr Temple (TX) 2 25:38.2 111.0 45 65
66 Ben Hutterer So Monmouth (NJ) 1 25:38.7 111.0 46 66
67 Stephan Sample So Lehigh (PA) 11 25:40.9 110.8 67
68 Kyle Reeping Jr Duquesne (PA) 7 25:41.9 110.8 47 68
69 Josh Clark So Bucknell (PA) 6 25:43.1 110.7 48 69
70 Ben White Jr Princeton (NJ) 7 25:44.1 110.6 49 70
71 Chris Snyder So UMBC (MD) 1 25:46.1 110.5 71
72 Dustin Martin So Columbia (NY) 8 25:46.1 110.5 72
73 Miles Becker Fr Columbia (NY) 9 25:46.4 110.4 73
74 Ian Shore So Bucknell (PA) 7 25:46.4 110.4 50 74
75 Andrew Jervis So Lehigh (PA) 12 25:47.2 110.4 75
76 Joe Stilin Fr Princeton (NJ) 1 25:47.8 110.3 76
77 Kevin McGoldrick Jr Bucknell (PA) 8 25:48.1 110.3 77
78 Max Kaulbach Fr Princeton (NJ) 8 25:48.8 110.3 78
79 Tim Majewski Sr Duquesne (PA) 8 25:49.6 110.2 79
80 Joe Simpson Jr Maryland (MD) 2 25:51.3 110.1 80
81 Jacob Enke So Columbia (NY) 10 25:52.1 110.0 81
82 Kyle Soloff So Princeton (NJ) 9 25:53.5 109.9 82
83 Eric Ndikumana Fr Columbia (NY) 11 25:55.8 109.8 83
84 Jesse Brooks So Saint Joseph's (PA) 7 25:56.1 109.8 51 84
85 Andrew Buchanan Fr Columbia (NY) 12 25:56.3 109.7 85
86 Billy Dowd So Monmouth (NJ) 2 25:56.6 109.7 52 86
87 Ryan Fenimore So Saint Joseph's (PA) 8 25:57.3 109.7 87
88 Mason McElroy Sr Columbia (NY) 13 25:58.6 109.6 88
89 Joe Foley Sr Bucknell (PA) 9 25:59.7 109.5 89
90 Matthew Sheridan Jr Lehigh (PA) 13 26:00.3 109.5 90
91 Christopher Boyd Fr Bucknell (PA) 10 26:00.5 109.4 91
92 Donald Sanner Sr Bucknell (PA) 11 26:02.3 109.3 92
93 Josh Okoniewski Sr UMBC (MD) 2 26:04.5 109.2 93
94 Jeffrey Weinstein So Penn (IN) 1 26:05.1 109.1 53 94
95 Stephen Feebish So Loyola (Md.) (PA) 2 26:06.0 109.1 54 95
96 Keith Forlenza Sr Loyola (Md.) (PA) 3 26:06.3 109.0 55 96
97 George Wittman Jr Saint Joseph's (PA) 9 26:07.3 109.0 97
98 Evan Flach Fr Lehigh (PA) 14 26:07.8 108.9 98
99 Chris Bowie So UMBC (MD) 4 26:08.4 108.9 56 99
100 Peter Maag Fr Princeton (NJ) 10 26:11.4 108.7 100
101 David Brown Fr Bucknell (PA) 12 26:13.9 108.5 101
102 Douglas Ridyard Jr Lehigh (PA) 15 26:15.8 108.4 102
103 Greg Kremler Jr Columbia (NY) 14 26:16.7 108.3 103
104 Stephen Young Jr Saint Joseph's (PA) 1 26:19.8 108.1 104
105 Michael Cunningham Fr Penn (IN) 1 26:19.9 108.1 105
106 Ben Fletcher - Penn (IN) 2 26:20.8 108.0 57 106
107 Eric Conklin So Temple (TX) 3 26:21.1 108.0 58 107
108 Justin Heinze Sr Saint Joseph's (PA) 10 26:23.3 107.9 108
109 Jordan Inacio So Lehigh (PA) 16 26:25.9 107.7 109
110 Geoffrey Barletta Fr Temple (TX) 4 26:29.2 107.5 59 110
111 Justin O'Brien So Bucknell (PA) 13 26:29.2 107.5 111
112 Keith Sansone Fr Bucknell (PA) 14 26:30.1 107.4 112
113 Matthew Hilderbrandt So Lehigh (PA) 17 26:31.0 107.3 113
114 Mike Bertocchi Fr Monmouth (NJ) 3 26:31.6 107.3 60 114
115 Kieran Dowling So Loyola (Md.) (PA) 3 26:33.4 107.2 61 115
116 Clarke Hunt So Temple (TX) 5 26:34.7 107.1 62 116
117 Jared Labar Jr Lehigh (PA) 18 26:37.7 106.9 117
118 Alec Richardson Fr Monmouth (NJ) 4 26:38.9 106.8 63 118
119 Michael Ryan So Bucknell (PA) 15 26:40.6 106.7 119
120 Ryan Feehrey So Temple (TX) 6 26:41.0 106.7 64 120
121 Bryan Herbst So Lehigh (PA) 19 26:41.1 106.7 121
122 Kenneth Durell Fr Columbia (NY) 15 26:43.7 106.5 122
123 David Evans Fr Saint Joseph's (PA) 1 26:44.2 106.5 123
124 Charles Murphy So Bucknell (PA) 16 26:44.3 106.4 124
125 Evan Novakowski So Bucknell (PA) 17 26:47.5 106.2 125
126 Dan Collura Fr Monmouth (NJ) 5 26:51.7 106.0 65 126
127 Michael Vido Fr Penn (IN) 2 26:53.3 105.9 127
128 Vincent Collins So Saint Joseph's (PA) 11 26:54.0 105.8 128
129 Luke Fischer So Saint Joseph's (PA) 12 26:54.4 105.8 129
130 Adam Staricha So Temple (TX) 7 26:54.6 105.8 66 130
131 Ian Quinlan Fr Lehigh (PA) 20 26:55.8 105.7 131
132 James Waddington Sr Temple (TX) 8 26:56.6 105.6 132
133 Timothy Burns So Loyola (Md.) (PA) 4 26:56.7 105.6 67 133
134 Timothy Ryan So Bucknell (PA) 18 26:57.4 105.6 134
135 Logan Hohs Fr Saint Joseph's (PA) 13 27:03.1 105.2 135
136 Jeff Cody Sr Monmouth (NJ) 6 27:04.2 105.2 68 136
137 Kyle Ramer Jr Bucknell (PA) 19 27:06.5 105.0 137
138 Tarik Aougab Jr Penn (IN) 3 27:08.7 104.9 69 138
139 Charles Donnelly Fr Loyola (Md.) (PA) 1 27:09.2 104.8 139
140 Ryan Mulligan Fr Monmouth (NJ) 7 27:12.5 104.6 70 140
141 Isaac Ortiz Fr Penn (IN) 1 27:12.5 104.6 141
142 Garth DeBlasio Fr Monmouth (NJ) 8 27:12.9 104.6 142
143 Joseph Myrie Fr Penn (IN) 4 27:14.0 104.5 71 143
144 Andrew Seaver Jr Monmouth (NJ) 9 27:15.3 104.4 144
145 Murphy O'Donnell Fr Saint Joseph's (PA) 14 27:16.3 104.4 145
146 Kevin Donnelly So Saint Joseph's (PA) 15 27:17.1 104.3 146
147 Brian Scullin Sr Loyola (Md.) (PA) 4 27:19.0 104.2 72 147
148 Bryan Scotland Sr Penn (IN) 5 27:24.2 103.9 73 148
149 Ian McArtney Fr Loyola (Md.) (PA) 2 27:27.2 103.7 149
150 Christopher McDonnell Fr Penn (IN) 2 27:31.4 103.4 150
151 Joseph Ju Fr NJIT (NY) 2 27:31.4 103.4 151
152 Colton Langianese So Monmouth (NJ) 2 27:36.0 103.1 152
153 Ryan Santonacita Sr Loyola (Md.) (PA) 5 27:37.0 103.1 74 153
154 David Walters Fr Temple (TX) 9 27:37.7 103.0 154
155 Roy Jones Fr UMBC (MD) 5 27:38.8 103.0 75 155
156 Louis Manna Fr Loyola (Md.) (PA) 6 27:39.5 102.9 76 156
157 David Ellis Jr Temple (TX) 1 27:40.9 102.8 157
158 Clayton Smith So Bucknell (PA) 20 27:43.3 102.7 158
159 Vin Improta Fr Monmouth (NJ) 10 27:44.0 102.6 159
160 Daniel Soltan Fr Lehigh (PA) 21 27:56.1 101.9 160
161 Brendan Kearney Sr Saint Joseph's (PA) 16 27:59.6 101.7 161
162 Matthew Hassett Fr Loyola (Md.) (PA) 5 28:01.0 101.6 77 162
163 Brian Ledder Fr Temple (TX) 10 28:03.3 101.5 163
164 Alex Peterson Fr Bucknell (PA) 21 28:04.3 101.4 164
165 Cody Kulik Fr Monmouth (NJ) 11 28:06.9 101.2 165
166 Ryan Lundy Fr Monmouth (NJ) 12 28:09.7 101.1 166
167 Patrick Granitski Fr NJIT (NY) 2 28:12.3 100.9 167
168 Shawn Platz So Monmouth (NJ) 3 28:14.9 100.8 168
169 Roswell Friend So Temple (TX) 11 28:19.4 100.5 169
170 Connor Marengo So Temple (TX) 12 28:20.6 100.4 170
171 Stefan Montalvo So NJIT (NY) 3 28:27.4 100.0 171
172 David D'Alessio So Bucknell (PA) 22 28:28.7 99.9 172
173 Evan Mydlowski Fr Monmouth (NJ) 13 28:28.9 99.9 173
174 Thomas Thomas Fr Temple (TX) 13 28:37.3 99.4 174
175 Brad Leonhardt Jr NJIT (NY) 4 28:37.9 99.4 175
176 Tom Espedal Jr Bucknell (PA) 23 28:42.3 99.2 176
177 Yasser Barr Sr Monmouth (NJ) 14 28:57.7 98.3 177
178 Dave Balzer Fr Monmouth (NJ) 15 29:01.9 98.1 178
179 steve Levundusky So Bucknell (PA) 24 29:09.7 97.6 179
180 Sean Barrett So Loyola (Md.) (PA) 6 29:11.9 97.5 78 180
181 Brendan McGoldrick Sr Monmouth (NJ) 1 29:12.2 97.5 181
182 Bruce Lukens Fr Monmouth (NJ) 16 29:19.4 97.1 182
183 J.J. Caffarelli Fr Monmouth (NJ) 17 29:39.2 96.0 183
184 Jason Harmon - UMBC (MD) 3 29:44.3 95.7 184
185 Patrick Reagan Jr Loyola (Md.) (PA) 3 29:59.8 94.9 185
186 David Gerz Fr Loyola (Md.) (PA) 4 30:01.2 94.8 186
187 Jeffrey Malone Jr Loyola (Md.) (PA) 7 30:59.7 91.8 79 187
188 Joey Contreras FR Monmouth (NJ) 2 31:16.3 91.0 188
189 Patrick Sullivan So Loyola (Md.) (PA) 7 32:20.1 88.0 80 189